Airfield :
LOGIN :

Register | Disclaimer

   EN    FR    IT 

 










Legend :    VFR   Marginal VFR   IFR   Intensive IFR   Very Intensive IFR
Visi :
Ceiling :
>= 8 km
>= 3000ft
5 to 8 km
1000 to 3000 ft
1500m to 5 km
500 to 1000 ft
800 to 1500m
200 to 500 ft
< 800m
< 200 ft
Symbols :   Thunderstorms  Fog  Heavy snow  Heavy precipitations  Wind > 20 kt
SIGMETs :     Misc.  Thunderstorms  Icing  Turbulence  Mountain Waves  Volcanic Ashes






- Airport Elevation : 135 ft
- IATA code : EDI


EGPH - Edinburgh

CURRENT METAR :
  • 092050Z 25006KT 9999 BKN037 03/01 Q1016

EXPIRED METARs :
  • 092020Z 25005KT 9999 BKN047 02/00 Q1017
  • 091950Z 27004KT CAVOK 02/01 Q1017
  • 091920Z 25004KT 9999 FEW023 02/01 Q1017
  • 091850Z 24007KT CAVOK 02/01 Q1018
  • 091820Z 25006KT CAVOK 02/01 Q1018

TAF TAF EGPH
Valid from the 09 at 18:00 until the 10 at 18:00 UTC


091703Z 0918/1018 26009KT 9999 FEW030
BECMG 0921/0924 19012KT
TEMPO 1003/1006 20018G28KT
TEMPO 1006/1016 21030G43KT 6000 RA
BECMG 1014/1016 25018KT
PROB30
TEMPO 1014/1016 3000 +RA BKN012
PROB40
TEMPO 1015/1018 25020G30KT 8000 -SHRA
ATIS : +44 131 339 2823



MET'MAP, your aeronautical weather chart ! - Copyright ORBIFLY December 2007 - Disclaimer

ORBIFLY MET'MAP TEAM :

Programming & Development : Alexandra Zaïnal
Concept & original design : Baudouin d'Aumeries
Assistance for programming : Marc-Olivier Méhu
Technical & hardware support : Manuel Goepfert

Contact : metmap@orbifly.com




SOURCES & CREDITS :

   NOAA